createdAt,value
2023-04-18T00:01:19.109Z,101855.00
2023-04-18T00:03:53.202Z,101889.00
2023-04-18T00:06:26.049Z,101869.00
2023-04-18T00:08:58.957Z,101859.00
2023-04-18T00:11:32.234Z,101858.00
2023-04-18T00:14:13.502Z,101855.00
2023-04-18T00:16:46.696Z,101845.00
2023-04-18T00:19:20.293Z,101835.00
2023-04-18T00:21:54.516Z,101835.00
2023-04-18T00:24:27.498Z,101841.00
2023-04-18T00:27:00.443Z,101835.00
2023-04-18T00:29:33.695Z,101830.00
2023-04-18T00:32:06.488Z,101823.00
2023-04-18T00:34:39.395Z,101817.00
2023-04-18T00:37:12.177Z,101826.00
2023-04-18T00:39:44.846Z,101800.00
2023-04-18T00:42:17.635Z,101801.00
2023-04-18T00:44:51.314Z,101791.00
2023-04-18T00:47:24.126Z,101790.00
2023-04-18T00:49:57.682Z,101781.00
2023-04-18T00:52:30.659Z,101783.00
2023-04-18T00:55:03.838Z,101782.00
2023-04-18T00:57:36.924Z,101759.00
2023-04-18T01:00:14.169Z,101758.00
2023-04-18T01:02:47.016Z,101742.00
2023-04-18T01:05:22.789Z,101758.00
2023-04-18T01:07:56.815Z,101750.00
2023-04-18T01:10:30.436Z,101752.00
2023-04-18T01:13:19.611Z,101743.00
2023-04-18T01:15:53.436Z,101742.00
2023-04-18T01:18:26.342Z,101729.00
2023-04-18T01:21:00.748Z,101737.00
2023-04-18T01:23:33.732Z,101745.00
2023-04-18T01:26:06.840Z,101754.00
2023-04-18T01:28:40.475Z,101759.00
2023-04-18T01:31:13.387Z,101741.00
2023-04-18T01:33:46.136Z,101748.00
2023-04-18T01:36:19.127Z,101744.00
2023-04-18T01:38:51.906Z,101748.00
2023-04-18T01:41:24.684Z,101752.00
2023-04-18T01:43:58.187Z,101747.00
2023-04-18T01:46:31.157Z,101733.00
2023-04-18T01:49:04.046Z,101733.00
2023-04-18T01:51:36.849Z,101737.00
2023-04-18T01:54:09.669Z,101731.00
2023-04-18T01:56:42.468Z,101726.00
2023-04-18T01:59:15.405Z,101725.00
2023-04-18T02:01:48.186Z,101719.00
2023-04-18T02:04:21.407Z,101719.00
2023-04-18T02:06:54.293Z,101724.00
2023-04-18T02:09:27.302Z,101705.00
2023-04-18T02:12:01.425Z,101692.00
2023-04-18T02:14:35.512Z,101694.00
2023-04-18T02:17:08.231Z,101708.00
2023-04-18T02:19:40.887Z,101705.00
2023-04-18T02:22:13.673Z,101697.00
2023-04-18T02:24:47.133Z,101694.00
2023-04-18T02:27:19.515Z,101690.00
2023-04-18T02:29:52.525Z,101696.00
2023-04-18T02:32:25.499Z,101692.00
2023-04-18T02:34:58.544Z,101696.00
2023-04-18T02:37:31.441Z,101685.00
2023-04-18T02:40:04.048Z,101677.00
2023-04-18T02:42:37.148Z,101676.00
2023-04-18T02:45:10.680Z,101683.00
2023-04-18T02:47:54.593Z,101682.00
2023-04-18T02:50:18.723Z,101681.00
2023-04-18T02:52:51.446Z,101675.00
2023-04-18T02:55:24.199Z,101680.00
2023-04-18T02:57:56.900Z,101680.00
2023-04-18T03:00:29.692Z,101682.00
2023-04-18T03:03:02.689Z,101680.00
2023-04-18T03:05:35.585Z,101673.00
2023-04-18T03:08:08.507Z,101683.00
2023-04-18T03:10:41.241Z,101682.00
2023-04-18T03:13:13.941Z,101673.00
2023-04-18T03:15:46.885Z,101682.00
2023-04-18T03:18:19.945Z,101690.00
2023-04-18T03:20:52.609Z,101686.00
2023-04-18T03:23:25.203Z,101682.00
2023-04-18T03:25:57.822Z,101676.00
2023-04-18T03:28:30.784Z,101674.00
2023-04-18T03:31:03.687Z,101674.00
2023-04-18T03:33:36.434Z,101670.00
2023-04-18T03:36:09.526Z,101671.00
2023-04-18T03:38:42.602Z,101667.00
2023-04-18T03:41:15.272Z,101661.00
2023-04-18T03:43:48.379Z,101665.00
2023-04-18T03:46:21.241Z,101657.00
2023-04-18T03:48:54.347Z,101655.00
2023-04-18T03:51:26.946Z,101650.00
2023-04-18T03:53:59.918Z,101661.00
2023-04-18T03:56:32.885Z,101641.00
2023-04-18T03:59:05.820Z,101649.00
2023-04-18T04:01:39.035Z,101643.00
2023-04-18T04:04:16.205Z,101653.00
2023-04-18T04:06:49.449Z,101652.00
2023-04-18T04:09:22.356Z,101645.00
2023-04-18T04:11:55.465Z,101641.00
2023-04-18T04:14:28.168Z,101664.00
2023-04-18T04:17:01.147Z,101648.00
2023-04-18T04:19:34.058Z,101644.00
2023-04-18T04:22:06.848Z,101642.00
2023-04-18T04:24:40.598Z,101636.00
2023-04-18T04:27:14.440Z,101635.00
2023-04-18T04:29:47.310Z,101637.00
2023-04-18T04:32:20.167Z,101638.00
2023-04-18T04:34:53.116Z,101632.00
2023-04-18T04:37:25.931Z,101636.00
2023-04-18T04:39:58.897Z,101640.00
2023-04-18T04:42:31.806Z,101638.00
2023-04-18T04:45:04.986Z,101634.00
2023-04-18T04:47:38.469Z,101638.00
2023-04-18T04:50:13.879Z,101629.00
2023-04-18T04:52:47.020Z,101630.00
2023-04-18T04:55:24.186Z,101634.00
2023-04-18T04:57:58.829Z,101635.00
2023-04-18T05:00:31.833Z,101637.00
2023-04-18T05:03:05.079Z,101646.00
2023-04-18T05:05:38.155Z,101639.00
2023-04-18T05:08:11.301Z,101632.00
2023-04-18T05:10:45.083Z,101642.00
2023-04-18T05:13:17.894Z,101627.00
2023-04-18T05:15:50.876Z,101640.00
2023-04-18T05:18:23.953Z,101639.00
2023-04-18T05:20:57.796Z,101628.00
2023-04-18T05:23:30.634Z,101633.00
2023-04-18T05:26:03.557Z,101630.00
2023-04-18T05:28:36.651Z,101629.00
2023-04-18T05:31:09.680Z,101629.00
2023-04-18T05:33:42.622Z,101623.00
2023-04-18T05:36:15.641Z,101623.00
2023-04-18T05:38:48.580Z,101630.00
2023-04-18T05:41:21.571Z,101652.00
2023-04-18T05:44:04.337Z,101637.00
2023-04-18T05:46:28.598Z,101630.00
2023-04-18T05:49:01.354Z,101639.00
2023-04-18T05:51:34.893Z,101642.00
2023-04-18T05:54:07.932Z,101633.00
2023-04-18T05:56:40.722Z,101639.00
2023-04-18T05:59:13.843Z,101637.00
2023-04-18T06:01:46.643Z,101634.00
2023-04-18T06:04:19.863Z,101640.00
2023-04-18T06:06:53.262Z,101640.00
2023-04-18T06:09:26.080Z,101641.00
2023-04-18T06:11:59.759Z,101643.00
2023-04-18T06:14:32.599Z,101640.00
2023-04-18T06:17:05.384Z,101640.00
2023-04-18T06:19:38.694Z,101643.00
2023-04-18T06:22:14.098Z,101634.00
2023-04-18T06:24:46.947Z,101649.00
2023-04-18T06:27:30.656Z,101645.00
2023-04-18T06:29:53.758Z,101646.00
2023-04-18T06:32:26.746Z,101653.00
2023-04-18T06:34:59.554Z,101655.00
2023-04-18T06:37:32.444Z,101659.00
2023-04-18T06:40:05.514Z,101650.00
2023-04-18T06:42:38.638Z,101666.00
2023-04-18T06:45:13.730Z,101665.00
2023-04-18T06:47:46.598Z,101663.00
2023-04-18T06:50:20.685Z,101664.00
2023-04-18T06:52:53.392Z,101669.00
2023-04-18T06:55:28.854Z,101667.00
2023-04-18T06:58:04.517Z,101670.00
2023-04-18T07:00:37.469Z,101677.00
2023-04-18T07:03:11.651Z,101670.00
2023-04-18T07:05:44.748Z,101677.00
2023-04-18T07:08:17.668Z,101674.00
2023-04-18T07:10:50.497Z,101683.00
2023-04-18T07:13:23.291Z,101674.00
2023-04-18T07:15:56.422Z,101678.00
2023-04-18T07:18:37.393Z,101684.00
2023-04-18T07:21:03.682Z,101677.00
2023-04-18T07:23:36.429Z,101687.00
2023-04-18T07:26:11.412Z,101682.00
2023-04-18T07:28:44.350Z,101697.00
2023-04-18T07:31:20.159Z,101686.00
2023-04-18T07:33:52.280Z,101677.00
2023-04-18T07:36:25.091Z,101680.00
2023-04-18T07:38:57.596Z,101677.00
2023-04-18T07:41:30.488Z,101681.00
2023-04-18T07:44:03.713Z,101678.00
2023-04-18T07:46:36.663Z,101678.00
2023-04-18T07:49:09.928Z,101678.00
2023-04-18T07:51:43.208Z,101684.00
2023-04-18T07:54:16.039Z,101691.00
2023-04-18T07:56:48.888Z,101688.00
2023-04-18T07:59:21.749Z,101691.00
2023-04-18T08:01:54.493Z,101693.00
2023-04-18T08:04:30.403Z,101700.00
2023-04-18T08:07:03.377Z,101698.00
2023-04-18T08:09:36.183Z,101688.00
2023-04-18T08:12:09.470Z,101687.00
2023-04-18T08:14:43.637Z,101687.00
2023-04-18T08:17:16.455Z,101688.00
2023-04-18T08:19:49.109Z,101682.00
2023-04-18T08:22:22.067Z,101686.00
2023-04-18T08:25:04.493Z,101684.00
2023-04-18T08:27:28.822Z,101691.00
2023-04-18T08:30:01.587Z,101690.00
2023-04-18T08:32:37.693Z,101691.00
2023-04-18T08:35:10.617Z,101696.00
2023-04-18T08:37:43.512Z,101686.00
2023-04-18T08:40:16.423Z,101699.00
2023-04-18T08:42:49.195Z,101705.00
2023-04-18T08:45:23.348Z,101689.00
2023-04-18T08:47:57.455Z,101689.00
2023-04-18T08:50:30.860Z,101695.00
2023-04-18T08:53:04.982Z,101697.00
2023-04-18T08:55:37.806Z,101698.00
2023-04-18T08:58:10.651Z,101711.00
2023-04-18T09:00:43.690Z,101711.00
2023-04-18T09:03:18.619Z,101704.00
2023-04-18T09:05:54.856Z,101710.00
2023-04-18T09:08:27.718Z,101711.00
2023-04-18T09:11:02.287Z,101711.00
2023-04-18T09:13:45.613Z,101714.00
2023-04-18T09:16:18.424Z,101710.00
2023-04-18T09:18:56.253Z,101708.00
2023-04-18T09:21:29.824Z,101702.00
2023-04-18T09:24:08.515Z,101714.00
2023-04-18T09:26:41.327Z,101702.00
2023-04-18T09:29:14.280Z,101713.00
2023-04-18T09:32:03.523Z,101707.00
2023-04-18T09:34:36.608Z,101717.00
2023-04-18T09:37:16.786Z,101714.00
2023-04-18T09:39:49.385Z,101708.00
2023-04-18T09:42:22.936Z,101716.00
2023-04-18T09:45:07.274Z,101716.00
2023-04-18T09:47:40.565Z,101719.00
2023-04-18T09:50:14.326Z,101704.00
2023-04-18T09:52:47.752Z,101713.00
2023-04-18T09:55:24.066Z,101716.00
2023-04-18T09:57:58.250Z,101721.00
2023-04-18T10:00:33.184Z,101726.00
2023-04-18T10:03:13.673Z,101716.00
2023-04-18T10:05:47.474Z,101721.00
2023-04-18T10:08:20.316Z,101724.00
2023-04-18T10:10:53.092Z,101722.00
2023-04-18T10:13:26.465Z,101719.00
2023-04-18T10:16:00.070Z,101718.00
2023-04-18T10:18:32.994Z,101724.00
2023-04-18T10:21:09.055Z,101719.00
2023-04-18T10:23:43.066Z,101715.00
2023-04-18T10:26:16.158Z,101716.00
2023-04-18T10:28:56.491Z,101713.00
2023-04-18T10:31:30.480Z,101710.00
2023-04-18T10:34:05.644Z,101700.00
2023-04-18T10:36:38.514Z,101701.00
2023-04-18T10:39:27.808Z,101704.00
2023-04-18T10:42:05.179Z,101700.00
2023-04-18T10:44:38.033Z,101705.00
2023-04-18T10:47:13.452Z,101705.00
2023-04-18T10:49:48.347Z,101703.00
2023-04-18T10:52:21.542Z,101702.00
2023-04-18T10:54:58.879Z,101712.00
2023-04-18T10:57:42.827Z,101710.00
2023-04-18T11:00:17.204Z,101704.00
2023-04-18T11:03:02.907Z,101706.00
2023-04-18T11:05:35.868Z,101701.00
2023-04-18T11:08:10.781Z,101715.00
2023-04-18T11:10:43.584Z,101704.00
2023-04-18T11:13:16.611Z,101708.00
2023-04-18T11:15:49.770Z,101703.00
2023-04-18T11:18:22.899Z,101697.00
2023-04-18T11:20:56.346Z,101696.00
2023-04-18T11:23:29.287Z,101693.00
2023-04-18T11:26:02.474Z,101693.00
2023-04-18T11:28:35.460Z,101698.00
2023-04-18T11:31:08.348Z,101692.00
2023-04-18T11:33:41.270Z,101695.00
2023-04-18T11:36:15.132Z,101694.00
2023-04-18T11:38:47.993Z,101697.00
2023-04-18T11:41:21.593Z,101697.00
2023-04-18T11:43:54.631Z,101693.00
2023-04-18T11:46:27.431Z,101690.00
2023-04-18T11:49:00.346Z,101693.00
2023-04-18T11:51:44.715Z,101688.00
2023-04-18T11:54:45.820Z,101705.00
2023-04-18T11:57:32.797Z,101693.00
2023-04-18T12:00:06.028Z,101699.00
2023-04-18T12:02:49.990Z,101699.00
2023-04-18T12:05:33.478Z,101699.00
2023-04-18T12:08:20.066Z,101696.00
2023-04-18T12:10:56.145Z,101704.00
2023-04-18T12:13:36.180Z,101699.00
2023-04-18T12:16:10.050Z,101699.00
2023-04-18T12:18:43.720Z,101706.00
2023-04-18T12:21:17.758Z,101704.00
2023-04-18T12:23:50.650Z,101697.00
2023-04-18T12:26:24.289Z,101710.00
2023-04-18T12:28:57.302Z,101697.00
2023-04-18T12:31:30.696Z,101696.00
2023-04-18T12:34:03.868Z,101697.00
2023-04-18T12:36:36.736Z,101707.00
2023-04-18T12:39:09.689Z,101713.00
2023-04-18T12:41:42.792Z,101710.00
2023-04-18T12:44:16.053Z,101710.00
2023-04-18T12:46:48.986Z,101710.00
2023-04-18T12:49:22.443Z,101708.00
2023-04-18T12:51:55.295Z,101713.00
2023-04-18T12:54:28.672Z,101711.00
2023-04-18T12:57:01.970Z,101714.00
2023-04-18T12:59:34.651Z,101711.00
2023-04-18T13:02:07.703Z,101715.00
2023-04-18T13:04:41.298Z,101709.00
2023-04-18T13:07:15.094Z,101709.00
2023-04-18T13:09:48.365Z,101704.00
2023-04-18T13:12:25.115Z,101716.00
2023-04-18T13:14:58.116Z,101717.00
2023-04-18T13:17:30.574Z,101721.00
2023-04-18T13:20:08.285Z,101721.00
2023-04-18T13:22:41.635Z,101713.00
2023-04-18T13:25:15.129Z,101718.00
2023-04-18T13:27:48.027Z,101715.00
2023-04-18T13:30:20.892Z,101709.00
2023-04-18T13:32:53.986Z,101719.00
2023-04-18T13:35:26.961Z,101707.00
2023-04-18T13:37:59.702Z,101710.00
2023-04-18T13:40:32.595Z,101709.00
2023-04-18T13:43:05.514Z,101706.00
2023-04-18T13:45:38.202Z,101712.00
2023-04-18T13:48:11.617Z,101711.00
2023-04-18T13:50:44.996Z,101715.00
2023-04-18T13:53:18.149Z,101699.00
2023-04-18T13:55:51.333Z,101702.00
2023-04-18T13:58:24.869Z,101699.00
2023-04-18T14:00:57.901Z,101699.00
2023-04-18T14:03:31.052Z,101693.00
2023-04-18T14:06:04.932Z,101692.00
2023-04-18T14:08:38.248Z,101688.00
2023-04-18T14:11:11.123Z,101683.00
2023-04-18T14:13:44.022Z,101683.00
2023-04-18T14:16:17.430Z,101672.00
2023-04-18T14:18:50.496Z,101670.00
2023-04-18T14:21:23.402Z,101674.00
2023-04-18T14:23:57.329Z,101671.00
2023-04-18T14:26:30.177Z,101667.00
2023-04-18T14:29:02.990Z,101673.00
2023-04-18T14:31:35.992Z,101667.00
2023-04-18T14:34:09.955Z,101660.00
2023-04-18T14:36:43.064Z,101670.00
2023-04-18T14:39:16.046Z,101664.00
2023-04-18T14:41:49.210Z,101654.00
2023-04-18T14:44:22.223Z,101651.00
2023-04-18T14:46:55.145Z,101657.00
2023-04-18T14:49:28.085Z,101649.00
2023-04-18T14:52:00.891Z,101646.00
2023-04-18T14:54:33.869Z,101644.00
2023-04-18T14:57:06.513Z,101649.00
2023-04-18T14:59:40.002Z,101642.00
2023-04-18T15:02:13.047Z,101639.00
2023-04-18T15:04:46.048Z,101640.00
2023-04-18T15:07:19.359Z,101622.00
2023-04-18T15:09:52.179Z,101637.00
2023-04-18T15:12:25.033Z,101641.00
2023-04-18T15:14:58.005Z,101639.00
2023-04-18T15:17:31.249Z,101631.00
2023-04-18T15:20:04.123Z,101621.00
2023-04-18T15:22:37.215Z,101630.00
2023-04-18T15:25:10.821Z,101626.00
2023-04-18T15:27:43.600Z,101625.00
2023-04-18T15:30:17.459Z,101620.00
2023-04-18T15:32:50.698Z,101613.00
2023-04-18T15:35:23.785Z,101609.00
2023-04-18T15:37:56.572Z,101616.00
2023-04-18T15:40:29.425Z,101605.00
2023-04-18T15:43:02.330Z,101601.00
2023-04-18T15:45:35.120Z,101600.00
2023-04-18T15:48:08.069Z,101600.00
2023-04-18T15:50:40.909Z,101604.00
2023-04-18T15:53:13.591Z,101600.00
2023-04-18T15:55:47.953Z,101595.00
2023-04-18T15:58:21.995Z,101596.00
2023-04-18T16:00:58.272Z,101591.00
2023-04-18T16:03:31.484Z,101594.00
2023-04-18T16:06:04.425Z,101603.00
2023-04-18T16:08:37.330Z,101589.00
2023-04-18T16:11:10.237Z,101603.00
2023-04-18T16:13:43.083Z,101606.00
2023-04-18T16:16:16.170Z,101596.00
2023-04-18T16:18:49.101Z,101608.00
2023-04-18T16:21:22.060Z,101601.00
2023-04-18T16:23:54.960Z,101606.00
2023-04-18T16:26:28.204Z,101613.00
2023-04-18T16:29:01.071Z,101619.00
2023-04-18T16:31:36.519Z,101628.00
2023-04-18T16:34:09.682Z,101625.00
2023-04-18T16:36:42.437Z,101619.00
2023-04-18T16:39:15.399Z,101624.00
2023-04-18T16:41:48.353Z,101637.00
2023-04-18T16:44:21.074Z,101624.00
2023-04-18T16:46:53.774Z,101632.00
2023-04-18T16:49:26.603Z,101631.00
2023-04-18T16:51:59.434Z,101635.00
2023-04-18T16:54:32.103Z,101642.00
2023-04-18T16:57:05.198Z,101639.00
2023-04-18T16:59:38.088Z,101642.00
2023-04-18T17:02:16.836Z,101642.00
2023-04-18T17:04:50.030Z,101654.00
2023-04-18T17:07:22.861Z,101651.00
2023-04-18T17:09:55.734Z,101649.00
2023-04-18T17:12:28.879Z,101660.00
2023-04-18T17:15:04.443Z,101656.00
2023-04-18T17:17:37.516Z,101664.00
2023-04-18T17:20:15.552Z,101659.00
2023-04-18T17:22:48.489Z,101664.00
2023-04-18T17:25:21.523Z,101651.00
2023-04-18T17:27:54.246Z,101650.00
2023-04-18T17:30:26.980Z,101660.00
2023-04-18T17:32:59.723Z,101657.00
2023-04-18T17:35:32.595Z,101660.00
2023-04-18T17:38:05.861Z,101656.00
2023-04-18T17:40:43.353Z,101660.00
2023-04-18T17:43:16.121Z,101647.00
2023-04-18T17:45:53.234Z,101654.00
2023-04-18T17:48:26.004Z,101655.00
2023-04-18T17:50:58.855Z,101656.00
2023-04-18T17:53:32.269Z,101647.00
2023-04-18T17:56:05.574Z,101651.00
2023-04-18T17:58:38.420Z,101653.00
2023-04-18T18:01:19.588Z,101648.00
2023-04-18T18:03:54.477Z,101653.00
2023-04-18T18:06:28.727Z,101640.00
2023-04-18T18:09:01.598Z,101640.00
2023-04-18T18:11:34.394Z,101652.00
2023-04-18T18:14:07.165Z,101654.00
2023-04-18T18:16:41.357Z,101653.00
2023-04-18T18:19:14.472Z,101644.00
2023-04-18T18:21:48.863Z,101652.00
2023-04-18T18:24:21.781Z,101651.00
2023-04-18T18:26:54.719Z,101655.00
2023-04-18T18:29:27.758Z,101660.00
2023-04-18T18:32:00.670Z,101639.00
2023-04-18T18:34:33.872Z,101653.00
2023-04-18T18:37:06.718Z,101644.00
2023-04-18T18:39:39.705Z,101654.00
2023-04-18T18:42:12.475Z,101649.00
2023-04-18T18:44:45.115Z,101656.00
2023-04-18T18:47:18.074Z,101660.00
2023-04-18T18:49:50.608Z,101658.00
2023-04-18T18:52:27.175Z,101666.00
2023-04-18T18:55:00.142Z,101663.00
2023-04-18T18:57:33.066Z,101659.00
2023-04-18T19:00:06.370Z,101661.00
2023-04-18T19:02:39.741Z,101662.00
2023-04-18T19:05:14.458Z,101666.00
2023-04-18T19:07:47.189Z,101664.00
2023-04-18T19:10:20.365Z,101661.00
2023-04-18T19:12:53.177Z,101662.00
2023-04-18T19:15:26.233Z,101653.00
2023-04-18T19:17:59.128Z,101658.00
2023-04-18T19:20:32.186Z,101654.00
2023-04-18T19:23:04.959Z,101656.00
2023-04-18T19:25:37.748Z,101658.00
2023-04-18T19:28:10.660Z,101664.00
2023-04-18T19:30:44.208Z,101659.00
2023-04-18T19:33:17.534Z,101670.00
2023-04-18T19:35:54.425Z,101662.00
2023-04-18T19:38:27.251Z,101673.00
2023-04-18T19:41:00.234Z,101676.00
2023-04-18T19:43:33.172Z,101682.00
2023-04-18T19:46:05.942Z,101685.00
2023-04-18T19:48:38.842Z,101695.00
2023-04-18T19:51:12.137Z,101691.00
2023-04-18T19:53:45.081Z,101685.00
2023-04-18T19:56:18.041Z,101695.00
2023-04-18T19:58:51.047Z,101693.00
2023-04-18T20:01:25.503Z,101700.00
2023-04-18T20:04:00.909Z,101696.00
2023-04-18T20:06:34.064Z,101704.00
2023-04-18T20:09:07.540Z,101710.00
2023-04-18T20:11:40.498Z,101714.00
2023-04-18T20:14:13.432Z,101712.00
2023-04-18T20:16:47.405Z,101711.00
2023-04-18T20:19:21.325Z,101716.00
2023-04-18T20:21:54.637Z,101717.00
2023-04-18T20:24:28.598Z,101713.00
2023-04-18T20:27:03.400Z,101717.00
2023-04-18T20:29:36.354Z,101720.00
2023-04-18T20:32:09.728Z,101725.00
2023-04-18T20:34:42.524Z,101728.00
2023-04-18T20:37:16.639Z,101730.00
2023-04-18T20:39:49.420Z,101730.00
2023-04-18T20:42:22.158Z,101737.00
2023-04-18T20:44:56.435Z,101731.00
2023-04-18T20:47:32.285Z,101730.00
2023-04-18T20:50:05.267Z,101731.00
2023-04-18T20:52:38.037Z,101723.00
2023-04-18T20:55:15.836Z,101729.00
2023-04-18T20:57:50.690Z,101735.00
2023-04-18T21:00:23.699Z,101739.00
2023-04-18T21:02:57.623Z,101733.00
2023-04-18T21:05:30.593Z,101742.00
2023-04-18T21:08:03.795Z,101735.00
2023-04-18T21:10:36.719Z,101739.00
2023-04-18T21:13:10.752Z,101747.00
2023-04-18T21:15:44.478Z,101737.00
2023-04-18T21:18:17.278Z,101741.00
2023-04-18T21:20:50.001Z,101742.00
2023-04-18T21:23:23.162Z,101747.00
2023-04-18T21:25:55.706Z,101743.00
2023-04-18T21:28:31.109Z,101741.00
2023-04-18T21:31:03.930Z,101750.00
2023-04-18T21:33:36.764Z,101746.00
2023-04-18T21:36:10.294Z,101756.00
2023-04-18T21:38:43.129Z,101744.00
2023-04-18T21:41:27.094Z,101753.00
2023-04-18T21:44:01.947Z,101745.00
2023-04-18T21:46:33.703Z,101753.00
2023-04-18T21:49:06.603Z,101742.00
2023-04-18T21:51:40.004Z,101747.00
2023-04-18T21:54:13.171Z,101754.00
2023-04-18T21:56:46.606Z,101750.00
2023-04-18T21:59:19.618Z,101747.00
2023-04-18T22:01:52.869Z,101755.00
2023-04-18T22:04:27.734Z,101757.00
2023-04-18T22:07:00.797Z,101764.00
2023-04-18T22:09:34.999Z,101758.00
2023-04-18T22:12:12.091Z,101750.00
2023-04-18T22:14:46.907Z,101746.00
2023-04-18T22:17:19.769Z,101747.00
2023-04-18T22:19:52.532Z,101761.00
2023-04-18T22:22:26.497Z,101752.00
2023-04-18T22:24:59.285Z,101755.00
2023-04-18T22:27:36.250Z,101752.00
2023-04-18T22:30:10.062Z,101757.00
2023-04-18T22:32:43.555Z,101752.00
2023-04-18T22:35:16.545Z,101751.00
2023-04-18T22:37:49.575Z,101749.00
2023-04-18T22:40:22.374Z,101748.00
2023-04-18T22:42:55.185Z,101759.00
2023-04-18T22:45:28.211Z,101742.00
2023-04-18T22:48:01.302Z,101752.00
2023-04-18T22:50:33.923Z,101751.00
2023-04-18T22:53:06.935Z,101757.00
2023-04-18T22:55:43.681Z,101749.00
2023-04-18T22:58:16.595Z,101739.00
2023-04-18T23:00:49.339Z,101748.00
2023-04-18T23:03:22.462Z,101750.00
2023-04-18T23:05:56.239Z,101749.00
2023-04-18T23:08:29.167Z,101743.00
2023-04-18T23:11:02.019Z,101750.00
2023-04-18T23:13:34.872Z,101742.00
2023-04-18T23:16:07.921Z,101745.00
2023-04-18T23:18:40.912Z,101736.00
2023-04-18T23:21:13.668Z,101749.00
2023-04-18T23:23:46.973Z,101747.00
2023-04-18T23:26:19.757Z,101755.00
2023-04-18T23:28:52.735Z,101743.00
2023-04-18T23:31:25.510Z,101745.00
2023-04-18T23:33:58.404Z,101740.00
2023-04-18T23:36:31.554Z,101741.00
2023-04-18T23:39:04.695Z,101735.00
2023-04-18T23:41:37.857Z,101739.00
2023-04-18T23:44:10.897Z,101750.00
2023-04-18T23:46:43.871Z,101745.00
2023-04-18T23:49:16.705Z,101736.00
2023-04-18T23:51:49.879Z,101753.00
2023-04-18T23:54:22.804Z,101745.00
2023-04-18T23:56:55.715Z,101740.00
2023-04-18T23:59:28.586Z,101738.00
